createdAt,value
2019-05-19T00:01:34.167Z,12.70
2019-05-19T00:04:01.532Z,12.80
2019-05-19T00:06:29.256Z,12.80
2019-05-19T00:08:56.691Z,12.90
2019-05-19T00:11:24.412Z,12.80
2019-05-19T00:13:51.943Z,12.90
2019-05-19T00:16:19.389Z,13.00
2019-05-19T00:18:46.837Z,13.00
2019-05-19T00:21:14.246Z,13.10
2019-05-19T00:23:41.627Z,13.10
2019-05-19T00:26:09.321Z,13.20
2019-05-19T00:28:36.772Z,13.20
2019-05-19T00:31:04.158Z,13.10
2019-05-19T00:33:31.653Z,13.10
2019-05-19T00:35:59.005Z,13.10
2019-05-19T00:38:26.422Z,13.10
2019-05-19T00:40:53.813Z,13.10
2019-05-19T00:43:21.318Z,13.10
2019-05-19T00:45:48.743Z,13.20
2019-05-19T00:48:16.334Z,13.20
2019-05-19T00:50:43.761Z,13.10
2019-05-19T00:53:11.245Z,13.10
2019-05-19T00:55:38.572Z,13.10
2019-05-19T00:58:06.746Z,13.10
2019-05-19T01:00:34.256Z,13.10
2019-05-19T01:03:01.694Z,13.10
2019-05-19T01:08:02.629Z,13.00
2019-05-19T01:10:31.243Z,12.90
2019-05-19T01:12:58.639Z,13.00
2019-05-19T01:15:26.056Z,13.10
2019-05-19T01:17:54.834Z,13.20
2019-05-19T01:20:24.226Z,13.30
2019-05-19T01:22:51.651Z,13.30
2019-05-19T01:25:19.156Z,13.30
2019-05-19T01:27:46.946Z,13.40
2019-05-19T01:30:17.488Z,13.40
2019-05-19T01:32:44.900Z,13.50
2019-05-19T01:35:12.431Z,13.40
2019-05-19T01:37:39.815Z,13.30
2019-05-19T01:40:09.121Z,13.40
2019-05-19T01:42:36.534Z,13.50
2019-05-19T01:45:06.458Z,13.50
2019-05-19T01:47:33.872Z,13.50
2019-05-19T01:50:17.032Z,13.50
2019-05-19T01:52:30.516Z,13.50
2019-05-19T01:54:58.014Z,13.70
2019-05-19T01:57:27.094Z,13.60
2019-05-19T01:59:55.577Z,13.60
2019-05-19T02:02:23.020Z,13.60
2019-05-19T02:04:50.404Z,13.60
2019-05-19T02:07:17.932Z,13.60
2019-05-19T02:09:45.397Z,13.60
2019-05-19T02:12:12.732Z,13.70
2019-05-19T02:14:40.129Z,13.70
2019-05-19T02:17:07.525Z,13.60
2019-05-19T02:19:34.961Z,13.70
2019-05-19T02:22:02.350Z,13.70
2019-05-19T02:24:29.745Z,13.70
2019-05-19T02:26:57.114Z,13.60
2019-05-19T02:29:24.499Z,13.60
2019-05-19T02:31:52.040Z,13.60
2019-05-19T02:34:19.396Z,13.60
2019-05-19T02:36:46.815Z,13.60
2019-05-19T02:39:14.216Z,13.60
2019-05-19T02:41:44.510Z,13.70
2019-05-19T02:44:15.780Z,13.70
2019-05-19T02:46:45.498Z,13.60
2019-05-19T02:49:14.930Z,13.60
2019-05-19T02:51:45.434Z,13.60
2019-05-19T02:54:13.745Z,13.70
2019-05-19T02:56:42.182Z,13.80
2019-05-19T02:59:09.719Z,13.80
2019-05-19T03:01:56.620Z,13.80
2019-05-19T03:04:25.646Z,13.70
2019-05-19T03:06:53.038Z,13.70
2019-05-19T03:09:20.487Z,13.70
2019-05-19T03:11:47.945Z,13.70
2019-05-19T03:14:15.397Z,13.70
2019-05-19T03:16:42.811Z,13.70
2019-05-19T03:19:10.233Z,13.70
2019-05-19T03:21:37.606Z,13.70
2019-05-19T03:24:05.033Z,13.60
2019-05-19T03:26:32.445Z,13.60
2019-05-19T03:29:00.116Z,13.60
2019-05-19T03:31:40.817Z,13.60
2019-05-19T03:34:08.233Z,13.50
2019-05-19T03:36:35.668Z,13.50
2019-05-19T03:39:04.494Z,13.50
2019-05-19T03:41:31.905Z,13.40
2019-05-19T03:43:59.292Z,13.40
2019-05-19T03:46:26.701Z,13.40
2019-05-19T03:48:54.143Z,13.40
2019-05-19T03:51:30.810Z,13.40
2019-05-19T03:53:50.796Z,13.40
2019-05-19T03:56:18.218Z,13.30
2019-05-19T03:58:45.608Z,13.40
2019-05-19T04:01:13.132Z,13.40
2019-05-19T04:03:40.538Z,13.50
2019-05-19T04:06:08.199Z,13.50
2019-05-19T04:08:35.634Z,13.50
2019-05-19T04:11:03.062Z,13.60
2019-05-19T04:13:30.460Z,13.60
2019-05-19T04:15:57.940Z,13.70
2019-05-19T04:18:25.409Z,13.70
2019-05-19T04:20:52.801Z,13.80
2019-05-19T04:23:20.506Z,14.00
2019-05-19T04:25:48.005Z,14.10
2019-05-19T04:28:15.381Z,14.10
2019-05-19T04:30:42.788Z,14.30
2019-05-19T04:33:10.237Z,14.20
2019-05-19T04:35:37.744Z,14.20
2019-05-19T04:38:05.175Z,14.20
2019-05-19T04:40:32.687Z,14.20
2019-05-19T04:43:00.087Z,14.20
2019-05-19T04:45:27.461Z,14.30
2019-05-19T04:47:54.841Z,14.30
2019-05-19T04:50:22.257Z,14.30
2019-05-19T04:52:49.648Z,14.50
2019-05-19T04:55:17.082Z,14.50
2019-05-19T04:57:44.413Z,14.40
2019-05-19T05:00:13.102Z,14.40
2019-05-19T05:02:40.486Z,14.50
2019-05-19T05:05:08.001Z,14.50
2019-05-19T05:07:35.386Z,14.40
2019-05-19T05:10:03.338Z,14.40
2019-05-19T05:12:30.742Z,14.30
2019-05-19T05:14:58.130Z,14.20
2019-05-19T05:17:25.808Z,14.00
2019-05-19T05:19:53.099Z,14.10
2019-05-19T05:22:22.386Z,14.20
2019-05-19T05:24:49.728Z,14.20
2019-05-19T05:27:17.576Z,14.20
2019-05-19T05:29:44.954Z,14.20
2019-05-19T05:32:12.375Z,14.30
2019-05-19T05:34:39.699Z,14.40
2019-05-19T05:37:06.998Z,14.40
2019-05-19T05:39:34.372Z,14.50
2019-05-19T05:42:01.625Z,14.50
2019-05-19T05:44:29.140Z,14.50
2019-05-19T05:46:56.474Z,14.50
2019-05-19T05:49:23.945Z,14.50
2019-05-19T05:51:51.323Z,14.70
2019-05-19T05:54:18.745Z,14.70
2019-05-19T05:56:46.148Z,14.60
2019-05-19T05:59:13.528Z,14.60
2019-05-19T06:01:40.956Z,14.60
2019-05-19T06:04:08.333Z,14.80
2019-05-19T06:06:35.618Z,14.70
2019-05-19T06:09:05.120Z,14.60
2019-05-19T06:11:32.551Z,14.70
2019-05-19T06:13:59.924Z,14.80
2019-05-19T06:16:27.261Z,14.80
2019-05-19T06:18:56.815Z,14.90
2019-05-19T06:21:23.906Z,15.00
2019-05-19T06:23:51.272Z,15.00
2019-05-19T06:26:18.685Z,15.20
2019-05-19T06:28:46.148Z,15.30
2019-05-19T06:31:13.551Z,15.40
2019-05-19T06:33:40.943Z,15.50
2019-05-19T06:36:08.975Z,15.40
2019-05-19T06:38:36.343Z,15.60
2019-05-19T06:41:03.802Z,15.60
2019-05-19T06:43:31.281Z,15.60
2019-05-19T06:45:58.646Z,15.60
2019-05-19T06:48:26.120Z,15.70
2019-05-19T06:50:53.512Z,15.80
2019-05-19T06:53:20.903Z,15.80
2019-05-19T06:55:48.262Z,15.90
2019-05-19T06:58:15.661Z,16.00
2019-05-19T07:00:43.058Z,16.20
2019-05-19T07:03:10.360Z,16.20
2019-05-19T07:05:37.737Z,16.10
2019-05-19T07:08:05.191Z,16.20
2019-05-19T07:10:32.563Z,16.10
2019-05-19T07:12:59.989Z,16.10
2019-05-19T07:15:27.536Z,16.20
2019-05-19T07:17:54.931Z,16.20
2019-05-19T07:20:22.394Z,16.10
2019-05-19T07:22:49.826Z,15.80
2019-05-19T07:25:17.261Z,15.60
2019-05-19T07:27:44.690Z,15.50
2019-05-19T07:30:14.041Z,15.40
2019-05-19T07:32:41.523Z,15.40
2019-05-19T07:35:08.948Z,15.40
2019-05-19T07:37:36.434Z,15.40
2019-05-19T07:40:03.902Z,15.30
2019-05-19T07:42:31.553Z,15.10
2019-05-19T07:44:58.934Z,15.10
2019-05-19T07:47:26.306Z,15.10
2019-05-19T07:49:53.776Z,15.20
2019-05-19T07:52:21.139Z,15.30
2019-05-19T07:54:48.578Z,15.20
2019-05-19T07:57:15.993Z,15.20
2019-05-19T07:59:43.369Z,15.20
2019-05-19T08:02:10.770Z,15.30
2019-05-19T08:04:38.134Z,15.30
2019-05-19T08:07:05.511Z,15.40
2019-05-19T08:09:33.039Z,15.40
2019-05-19T08:12:00.518Z,15.60
2019-05-19T08:14:28.031Z,15.80
2019-05-19T08:16:55.507Z,15.80
2019-05-19T08:19:22.957Z,15.80
2019-05-19T08:21:50.318Z,15.80
2019-05-19T08:24:17.709Z,16.00
2019-05-19T08:26:45.221Z,16.00
2019-05-19T08:29:12.578Z,16.10
2019-05-19T08:31:39.844Z,16.30
2019-05-19T08:34:07.425Z,16.40
2019-05-19T08:36:35.137Z,16.40
2019-05-19T08:39:05.095Z,16.40
2019-05-19T08:41:32.341Z,16.40
2019-05-19T08:44:00.008Z,16.50
2019-05-19T08:46:27.404Z,16.60
2019-05-19T08:48:57.931Z,16.70
2019-05-19T08:51:24.090Z,16.70
2019-05-19T08:53:51.473Z,16.80
2019-05-19T08:56:18.855Z,16.80
2019-05-19T08:58:46.408Z,16.80
2019-05-19T09:01:13.883Z,16.80
2019-05-19T09:03:41.248Z,16.70
2019-05-19T09:06:08.593Z,16.60
2019-05-19T09:08:35.995Z,16.50
2019-05-19T09:11:03.327Z,16.50
2019-05-19T09:13:30.678Z,16.50
2019-05-19T09:15:58.109Z,16.50
2019-05-19T09:18:25.578Z,16.50
2019-05-19T09:20:53.009Z,16.60
2019-05-19T09:23:20.405Z,16.70
2019-05-19T09:25:47.765Z,16.80
2019-05-19T09:28:15.156Z,16.80
2019-05-19T09:30:42.544Z,17.00
2019-05-19T09:33:09.937Z,17.10
2019-05-19T09:35:37.446Z,17.10
2019-05-19T09:38:04.831Z,17.10
2019-05-19T09:40:32.369Z,17.00
2019-05-19T09:42:59.885Z,17.00
2019-05-19T09:45:27.115Z,17.10
2019-05-19T09:47:54.539Z,17.10
2019-05-19T09:50:21.906Z,17.10
2019-05-19T09:52:49.291Z,17.20
2019-05-19T09:55:16.686Z,17.20
2019-05-19T09:57:44.168Z,17.20
2019-05-19T10:00:13.819Z,17.30
2019-05-19T10:02:41.202Z,17.40
2019-05-19T10:05:12.217Z,17.50
2019-05-19T10:07:39.662Z,17.50
2019-05-19T10:10:12.721Z,17.60
2019-05-19T10:12:40.248Z,17.70
2019-05-19T10:15:09.414Z,17.80
2019-05-19T10:17:36.831Z,17.90
2019-05-19T10:20:07.721Z,17.90
2019-05-19T10:22:35.123Z,17.90
2019-05-19T10:25:20.525Z,17.90
2019-05-19T10:27:31.869Z,18.00
2019-05-19T10:29:59.262Z,18.10
2019-05-19T10:32:26.568Z,18.20
2019-05-19T10:34:54.093Z,18.30
2019-05-19T10:37:21.530Z,18.40
2019-05-19T10:39:48.994Z,18.50
2019-05-19T10:42:16.480Z,18.60
2019-05-19T10:44:43.910Z,18.60
2019-05-19T10:47:11.255Z,18.70
2019-05-19T10:49:38.657Z,18.80
2019-05-19T10:52:06.119Z,18.90
2019-05-19T10:54:33.561Z,18.90
2019-05-19T10:57:01.032Z,18.90
2019-05-19T10:59:28.518Z,19.00
2019-05-19T11:01:55.976Z,18.90
2019-05-19T11:04:23.375Z,18.70
2019-05-19T11:06:50.741Z,18.50
2019-05-19T11:09:18.160Z,18.50
2019-05-19T11:11:45.533Z,18.50
2019-05-19T11:14:12.954Z,18.50
2019-05-19T11:16:40.380Z,18.40
2019-05-19T11:19:07.821Z,18.40
2019-05-19T11:21:35.214Z,18.50
2019-05-19T11:24:02.605Z,18.50
2019-05-19T11:26:30.026Z,18.50
2019-05-19T11:28:57.410Z,18.50
2019-05-19T11:31:24.799Z,18.60
2019-05-19T11:33:52.268Z,18.50
2019-05-19T11:36:19.666Z,18.50
2019-05-19T11:38:47.050Z,18.50
2019-05-19T11:41:14.491Z,18.50
2019-05-19T11:43:41.857Z,18.50
2019-05-19T11:46:09.261Z,18.50
2019-05-19T11:48:36.631Z,18.50
2019-05-19T11:51:04.106Z,18.60
2019-05-19T11:53:31.477Z,18.70
2019-05-19T11:56:06.563Z,18.90
2019-05-19T11:58:28.144Z,19.00
2019-05-19T12:00:55.514Z,19.10
2019-05-19T12:03:22.908Z,19.10
2019-05-19T12:05:50.250Z,19.10
2019-05-19T12:08:17.493Z,19.30
2019-05-19T12:10:44.753Z,19.50
2019-05-19T12:13:12.204Z,19.60
2019-05-19T12:15:39.607Z,19.70
2019-05-19T12:18:06.966Z,19.70
2019-05-19T12:20:34.410Z,19.70
2019-05-19T12:23:01.777Z,19.80
2019-05-19T12:25:29.155Z,19.80
2019-05-19T12:27:56.622Z,20.00
2019-05-19T12:30:23.981Z,20.10
2019-05-19T12:32:51.443Z,20.10
2019-05-19T12:35:18.808Z,20.00
2019-05-19T12:37:46.226Z,19.90
2019-05-19T12:40:13.818Z,19.90
2019-05-19T12:42:41.069Z,19.90
2019-05-19T12:45:09.369Z,20.10
2019-05-19T12:47:36.851Z,20.40
2019-05-19T12:50:05.052Z,20.40
2019-05-19T12:52:32.603Z,20.70
2019-05-19T12:55:00.016Z,20.80
2019-05-19T12:57:27.493Z,20.90
2019-05-19T12:59:54.877Z,20.90
2019-05-19T13:02:22.374Z,20.90
2019-05-19T13:05:04.409Z,20.90
2019-05-19T13:07:18.959Z,20.80
2019-05-19T13:09:46.252Z,20.90
2019-05-19T13:12:13.665Z,21.00
2019-05-19T13:14:41.614Z,21.20
2019-05-19T13:17:08.992Z,21.50
2019-05-19T13:19:36.356Z,21.70
2019-05-19T13:22:03.807Z,21.90
2019-05-19T13:24:31.267Z,22.00
2019-05-19T13:26:58.992Z,22.10
2019-05-19T13:29:26.387Z,22.30
2019-05-19T13:31:53.748Z,22.30
2019-05-19T13:34:21.161Z,22.30
2019-05-19T13:36:48.538Z,22.20
2019-05-19T13:39:15.932Z,22.20
2019-05-19T13:41:43.405Z,22.00
2019-05-19T13:44:11.058Z,22.00
2019-05-19T13:46:38.443Z,22.10
2019-05-19T13:49:05.907Z,22.20
2019-05-19T13:51:33.928Z,22.40
2019-05-19T13:54:01.333Z,22.70
2019-05-19T13:56:28.739Z,22.90
2019-05-19T13:58:56.216Z,22.90
2019-05-19T14:01:28.517Z,22.90
2019-05-19T14:03:52.818Z,23.00
2019-05-19T14:06:20.069Z,23.20
2019-05-19T14:08:47.461Z,23.40
2019-05-19T14:11:14.922Z,23.20
2019-05-19T14:13:42.350Z,22.90
2019-05-19T14:16:09.855Z,22.80
2019-05-19T14:18:37.262Z,22.60
2019-05-19T14:21:04.672Z,22.50
2019-05-19T14:23:32.038Z,22.30
2019-05-19T14:25:59.488Z,22.10
2019-05-19T14:28:26.856Z,22.00
2019-05-19T14:30:54.254Z,22.10
2019-05-19T14:33:21.653Z,22.00
2019-05-19T14:35:49.155Z,22.10
2019-05-19T14:38:16.589Z,22.30
2019-05-19T14:40:43.984Z,22.40
2019-05-19T14:43:11.310Z,22.30
2019-05-19T14:45:38.677Z,22.00
2019-05-19T14:48:06.093Z,21.70
2019-05-19T14:50:33.461Z,21.60
2019-05-19T14:53:00.822Z,21.70
2019-05-19T14:55:28.254Z,21.80
2019-05-19T14:57:55.719Z,21.80
2019-05-19T15:00:24.270Z,21.80
2019-05-19T15:02:51.643Z,21.80
2019-05-19T15:05:19.047Z,21.90
2019-05-19T15:07:46.378Z,21.90
2019-05-19T15:10:15.862Z,21.90
2019-05-19T15:12:43.233Z,21.80
2019-05-19T15:15:10.678Z,21.70
2019-05-19T15:17:38.043Z,21.70
2019-05-19T15:20:06.648Z,21.70
2019-05-19T15:22:34.162Z,21.80
2019-05-19T15:25:01.611Z,21.90
2019-05-19T15:27:29.066Z,21.80
2019-05-19T15:30:11.465Z,21.80
2019-05-19T15:32:25.507Z,21.80
2019-05-19T15:34:52.887Z,21.70
2019-05-19T15:37:20.379Z,21.80
2019-05-19T15:39:47.871Z,21.60
2019-05-19T15:42:15.249Z,21.60
2019-05-19T15:44:42.685Z,21.60
2019-05-19T15:47:10.081Z,21.60
2019-05-19T15:49:37.523Z,21.60
2019-05-19T15:52:05.977Z,21.50
2019-05-19T15:54:34.102Z,21.50
2019-05-19T15:57:01.581Z,21.50
2019-05-19T15:59:29.106Z,21.50
2019-05-19T16:01:56.521Z,21.50
2019-05-19T16:04:24.153Z,21.50
2019-05-19T16:06:51.523Z,21.60
2019-05-19T16:09:18.919Z,21.70
2019-05-19T16:11:46.347Z,21.60
2019-05-19T16:14:13.684Z,21.80
2019-05-19T16:16:41.163Z,21.70
2019-05-19T16:19:08.723Z,21.80
2019-05-19T16:21:36.045Z,21.80
2019-05-19T16:24:03.369Z,21.70
2019-05-19T16:26:30.751Z,21.70
2019-05-19T16:28:59.384Z,21.60
2019-05-19T16:31:28.073Z,21.50
2019-05-19T16:33:55.443Z,21.50
2019-05-19T16:36:22.818Z,21.60
2019-05-19T16:38:50.218Z,21.50
2019-05-19T16:41:17.595Z,21.30
2019-05-19T16:43:44.997Z,21.30
2019-05-19T16:46:12.381Z,21.20
2019-05-19T16:48:39.807Z,21.10
2019-05-19T16:51:07.488Z,21.10
2019-05-19T16:53:35.050Z,21.00
2019-05-19T16:56:02.392Z,20.90
2019-05-19T16:58:29.767Z,20.80
2019-05-19T17:00:57.772Z,20.90
2019-05-19T17:03:25.181Z,20.90
2019-05-19T17:05:52.578Z,20.80
2019-05-19T17:08:20.029Z,20.90
2019-05-19T17:10:47.430Z,21.00
2019-05-19T17:13:14.798Z,20.90
2019-05-19T17:15:42.206Z,21.20
2019-05-19T17:18:09.479Z,21.20
2019-05-19T17:20:36.893Z,21.40
2019-05-19T17:23:04.285Z,21.50
2019-05-19T17:25:31.700Z,21.60
2019-05-19T17:27:59.757Z,21.70
2019-05-19T17:30:27.564Z,21.90
2019-05-19T17:32:54.963Z,22.00
2019-05-19T17:35:22.390Z,22.30
2019-05-19T17:37:49.743Z,22.50
2019-05-19T17:40:17.444Z,22.70
2019-05-19T17:42:44.887Z,22.70
2019-05-19T17:45:13.291Z,23.00
2019-05-19T17:47:40.746Z,23.10
2019-05-19T17:50:09.169Z,23.30
2019-05-19T17:52:36.586Z,23.50
2019-05-19T17:55:04.895Z,23.60
2019-05-19T17:57:32.991Z,23.70
2019-05-19T18:00:00.952Z,23.50
2019-05-19T18:02:28.778Z,23.70
2019-05-19T18:04:56.183Z,23.80
2019-05-19T18:07:23.604Z,23.90
2019-05-19T18:09:50.961Z,23.80
2019-05-19T18:12:18.388Z,23.80
2019-05-19T18:14:45.766Z,23.70
2019-05-19T18:17:13.287Z,23.50
2019-05-19T18:19:40.765Z,23.30
2019-05-19T18:22:08.144Z,23.20
2019-05-19T18:24:35.597Z,22.90
2019-05-19T18:27:03.064Z,22.50
2019-05-19T18:29:31.690Z,22.40
2019-05-19T18:31:59.149Z,22.20
2019-05-19T18:34:26.572Z,22.10
2019-05-19T18:36:53.965Z,21.90
2019-05-19T18:39:21.409Z,21.60
2019-05-19T18:41:48.791Z,21.50
2019-05-19T18:44:16.247Z,21.40
2019-05-19T18:46:43.611Z,21.30
2019-05-19T18:49:11.021Z,21.10
2019-05-19T18:51:38.385Z,21.10
2019-05-19T18:54:05.733Z,21.00
2019-05-19T18:56:33.133Z,21.00
2019-05-19T18:59:00.542Z,21.00
2019-05-19T19:01:28.023Z,21.00
2019-05-19T19:03:56.023Z,21.00
2019-05-19T19:06:23.425Z,21.00
2019-05-19T19:08:50.848Z,20.90
2019-05-19T19:11:18.283Z,20.80
2019-05-19T19:13:45.697Z,20.60
2019-05-19T19:16:13.141Z,20.60
2019-05-19T19:18:40.557Z,20.40
2019-05-19T19:21:07.933Z,20.40
2019-05-19T19:23:35.293Z,20.30
2019-05-19T19:26:02.713Z,20.20
2019-05-19T19:28:30.131Z,20.30
2019-05-19T19:33:39.593Z,20.30
2019-05-19T19:36:06.929Z,20.20
2019-05-19T19:38:34.378Z,20.20
2019-05-19T19:41:01.852Z,20.10
2019-05-19T19:43:29.221Z,20.10
2019-05-19T19:45:56.629Z,20.00
2019-05-19T19:48:23.999Z,19.90
2019-05-19T19:50:51.391Z,19.80
2019-05-19T19:53:18.812Z,19.80
2019-05-19T19:55:46.482Z,19.80
2019-05-19T19:58:13.838Z,19.70
2019-05-19T20:00:43.539Z,19.70
2019-05-19T20:03:11.033Z,19.70
2019-05-19T20:05:38.446Z,19.60
2019-05-19T20:08:06.383Z,19.60
2019-05-19T20:10:34.081Z,19.60
2019-05-19T20:13:01.464Z,19.60
2019-05-19T20:15:28.851Z,19.60
2019-05-19T20:17:56.284Z,19.60
2019-05-19T20:20:24.237Z,19.60
2019-05-19T20:22:52.726Z,19.50
2019-05-19T20:25:20.181Z,19.50
2019-05-19T20:27:47.554Z,19.50
2019-05-19T20:30:15.054Z,19.40
2019-05-19T20:32:42.445Z,19.40
2019-05-19T20:35:09.799Z,19.40
2019-05-19T20:37:37.265Z,19.30
2019-05-19T20:40:04.761Z,19.10
2019-05-19T20:42:32.196Z,18.90
2019-05-19T20:44:59.929Z,18.80
2019-05-19T20:47:27.343Z,18.70
2019-05-19T20:49:54.734Z,18.70
2019-05-19T20:52:22.106Z,18.70
2019-05-19T20:54:49.485Z,18.70
2019-05-19T20:57:16.874Z,18.60
2019-05-19T20:59:44.257Z,18.60
2019-05-19T21:02:11.683Z,18.60
2019-05-19T21:04:39.122Z,18.60
2019-05-19T21:07:07.893Z,18.70
2019-05-19T21:09:35.524Z,18.60
2019-05-19T21:12:02.865Z,18.60
2019-05-19T21:14:30.149Z,18.60
2019-05-19T21:16:57.559Z,18.60
2019-05-19T21:19:24.918Z,18.50
2019-05-19T21:21:52.394Z,18.60
2019-05-19T21:24:19.804Z,18.50
2019-05-19T21:26:47.179Z,18.50
2019-05-19T21:29:14.591Z,18.40
2019-05-19T21:31:41.966Z,18.40
2019-05-19T21:34:09.383Z,18.40
2019-05-19T21:36:36.785Z,18.30
2019-05-19T21:39:05.205Z,18.30
2019-05-19T21:41:32.683Z,18.30
2019-05-19T21:44:00.147Z,18.20
2019-05-19T21:46:27.528Z,18.20
2019-05-19T21:48:54.973Z,18.10
2019-05-19T21:51:22.370Z,18.10
2019-05-19T21:53:49.746Z,18.10
2019-05-19T21:56:17.027Z,18.20
2019-05-19T21:58:44.458Z,18.20
2019-05-19T22:01:22.829Z,18.20
2019-05-19T22:03:41.153Z,18.20
2019-05-19T22:06:08.574Z,18.30
2019-05-19T22:08:35.945Z,18.20
2019-05-19T22:11:04.667Z,18.20
2019-05-19T22:13:32.518Z,18.20
2019-05-19T22:16:12.226Z,18.10
2019-05-19T22:18:29.110Z,18.10
2019-05-19T22:20:56.535Z,18.00
2019-05-19T22:23:23.893Z,18.00
2019-05-19T22:25:51.251Z,17.90
2019-05-19T22:28:18.737Z,17.90
2019-05-19T22:30:46.123Z,17.80
2019-05-19T22:33:13.517Z,17.80
2019-05-19T22:35:40.906Z,17.80
2019-05-19T22:38:09.572Z,17.70
2019-05-19T22:40:36.994Z,17.70
2019-05-19T22:43:04.427Z,17.70
2019-05-19T22:45:31.965Z,17.70
2019-05-19T22:47:59.298Z,17.70
2019-05-19T22:50:26.681Z,17.70
2019-05-19T22:52:54.107Z,17.70
2019-05-19T22:55:21.503Z,17.60
2019-05-19T22:57:48.882Z,17.60
2019-05-19T23:00:18.861Z,17.60
2019-05-19T23:02:46.220Z,17.60
2019-05-19T23:05:13.704Z,17.60
2019-05-19T23:07:41.137Z,17.60
2019-05-19T23:10:09.013Z,17.50
2019-05-19T23:12:36.410Z,17.50
2019-05-19T23:15:04.532Z,17.60
2019-05-19T23:17:31.935Z,17.50
2019-05-19T23:19:59.310Z,17.40
2019-05-19T23:22:26.621Z,17.40
2019-05-19T23:24:54.004Z,17.50
2019-05-19T23:27:21.376Z,17.40
2019-05-19T23:29:48.827Z,17.40
2019-05-19T23:32:16.231Z,17.30
2019-05-19T23:34:43.599Z,17.30
2019-05-19T23:37:11.101Z,17.30
2019-05-19T23:39:38.551Z,17.30
2019-05-19T23:42:06.006Z,17.30
2019-05-19T23:44:33.344Z,17.30
2019-05-19T23:47:00.734Z,17.30
2019-05-19T23:49:28.388Z,17.30
2019-05-19T23:51:55.674Z,17.30
2019-05-19T23:54:23.183Z,17.30
2019-05-19T23:56:50.617Z,17.30
2019-05-19T23:59:17.990Z,17.20
